createdAt,value
2018-05-01T00:00:23.888Z,3.5
2018-05-01T00:06:14.741Z,3.11
2018-05-01T00:12:05.535Z,3.62
2018-05-01T00:17:56.365Z,3.65
2018-05-01T00:23:47.233Z,3.2
2018-05-01T00:29:38.048Z,3.02
2018-05-01T00:35:28.866Z,3.64
2018-05-01T00:41:19.703Z,3.52
2018-05-01T00:47:10.594Z,3.85
2018-05-01T00:53:01.335Z,3.6
2018-05-01T00:58:52.172Z,3.76
2018-05-01T01:04:43.018Z,3.52
2018-05-01T01:10:33.835Z,3.54
2018-05-01T01:16:24.687Z,3.76
2018-05-01T01:22:15.551Z,3.28
2018-05-01T01:28:06.434Z,3.35
2018-05-01T01:33:57.187Z,3.56
2018-05-01T01:39:48.009Z,3.56
2018-05-01T01:45:38.810Z,3.18
2018-05-01T01:51:29.677Z,3.53
2018-05-01T01:57:20.510Z,3.27
2018-05-01T02:03:11.344Z,3.75
2018-05-01T02:09:02.147Z,4.04
2018-05-01T02:14:52.954Z,3.61
2018-05-01T02:20:43.805Z,3.54
2018-05-01T02:26:34.611Z,3.8
2018-05-01T02:32:25.500Z,3.56
2018-05-01T02:38:16.263Z,3.33
2018-05-01T02:44:07.134Z,3.55
2018-05-01T02:49:57.906Z,3.33
2018-05-01T02:55:48.738Z,3.31
2018-05-01T03:01:39.568Z,3.92
2018-05-01T03:07:30.421Z,3.45
2018-05-01T03:13:21.198Z,3.82
2018-05-01T03:19:12.034Z,3.1
2018-05-01T03:25:02.822Z,4.29
2018-05-01T03:30:53.729Z,3.8
2018-05-01T03:36:44.504Z,3.64
2018-05-01T03:42:35.310Z,4.43
2018-05-01T03:48:26.162Z,3.99
2018-05-01T03:54:16.992Z,3.99
2018-05-01T04:00:07.788Z,3.64
2018-05-01T04:05:58.600Z,3.82
2018-05-01T04:11:49.456Z,3.52
2018-05-01T04:17:40.260Z,3.75
2018-05-01T04:23:31.059Z,3.62
2018-05-01T04:29:21.924Z,4.25
2018-05-01T04:35:12.747Z,4.62
2018-05-01T04:41:03.555Z,4.77
2018-05-01T04:46:54.392Z,4.59
2018-05-01T04:52:45.228Z,4.06
2018-05-01T04:58:36.147Z,4.41
2018-05-01T05:04:26.828Z,4.68
2018-05-01T05:10:17.718Z,4.81
2018-05-01T05:16:08.494Z,5.31
2018-05-01T05:21:59.370Z,6.29
2018-05-01T05:27:50.162Z,6.26
2018-05-01T05:33:40.962Z,7.37
2018-05-01T05:39:31.791Z,5.31
2018-05-01T05:45:22.611Z,6.35
2018-05-01T05:51:13.464Z,5.93
2018-05-01T05:57:04.268Z,6.1
2018-05-01T06:02:55.139Z,5.72
2018-05-01T06:08:45.970Z,5.58
2018-05-01T06:10:32.738Z,7.49
2018-05-01T06:16:27.716Z,7.46
2018-05-01T06:22:22.743Z,20.85
2018-05-01T06:28:17.740Z,14.97
2018-05-01T06:34:12.726Z,13.36
2018-05-01T06:40:07.737Z,19.12
2018-05-01T06:46:02.759Z,20.01
2018-05-01T06:51:57.714Z,20.43
2018-05-01T06:57:52.904Z,15.63
2018-05-01T07:03:47.735Z,15.65
2018-05-01T07:09:42.746Z,18.89
2018-05-01T07:15:37.793Z,16.82
2018-05-01T07:21:32.778Z,16.87
2018-05-01T07:27:27.871Z,17.07
2018-05-01T07:33:22.773Z,16.16
2018-05-01T07:39:17.773Z,15.06
2018-05-01T07:45:12.792Z,14.49
2018-05-01T07:51:07.764Z,16.9
2018-05-01T07:57:02.789Z,16.37
2018-05-01T08:02:57.789Z,19.15
2018-05-01T08:08:52.811Z,15.5
2018-05-01T08:14:47.808Z,20.38
2018-05-01T08:20:42.808Z,19.26
2018-05-01T08:26:37.815Z,19.44
2018-05-01T08:32:32.811Z,17.07
2018-05-01T08:38:27.808Z,17.36
2018-05-01T08:44:22.826Z,10.85
2018-05-01T08:50:17.821Z,13.04
2018-05-01T08:56:12.814Z,11
2018-05-01T09:02:07.910Z,7.82
2018-05-01T09:08:02.824Z,6.65
2018-05-01T09:13:57.795Z,7.33
2018-05-01T09:19:52.830Z,6.09
2018-05-01T09:25:47.867Z,6.57
2018-05-01T09:31:42.839Z,6.26
2018-05-01T09:37:37.814Z,8
2018-05-01T09:43:32.863Z,6.62
2018-05-01T09:49:27.823Z,5.6
2018-05-01T09:55:22.835Z,5.75
2018-05-01T10:01:17.855Z,6.32
2018-05-01T10:07:12.848Z,5.48
2018-05-01T10:13:07.872Z,7.07
2018-05-01T10:19:02.886Z,6.34
2018-05-01T10:24:57.899Z,5.52
2018-05-01T10:30:52.872Z,5.69
2018-05-01T10:36:47.897Z,5.76
2018-05-01T10:42:42.864Z,5.47
2018-05-01T10:48:37.894Z,6.27
2018-05-01T10:54:32.933Z,5.56
2018-05-01T11:00:27.973Z,4.73
2018-05-01T11:06:22.918Z,6.6
2018-05-01T11:12:17.870Z,5.85
2018-05-01T11:18:12.898Z,5.31
2018-05-01T11:24:07.896Z,5.42
2018-05-01T11:30:02.914Z,5.13
2018-05-01T11:35:57.898Z,3.67
2018-05-01T11:41:52.923Z,3.83
2018-05-01T11:47:47.932Z,7.08
2018-05-01T11:53:42.939Z,5.92
2018-05-01T11:59:37.980Z,4.92
2018-05-01T12:05:32.950Z,3.13
2018-05-01T12:11:27.966Z,3.71
2018-05-01T12:17:22.994Z,2.46
2018-05-01T12:23:17.977Z,2.55
2018-05-01T12:29:12.926Z,2.52
2018-05-01T12:35:07.931Z,3.79
2018-05-01T12:41:02.953Z,3.4
2018-05-01T12:46:57.963Z,2.71
2018-05-01T12:52:52.987Z,2.96
2018-05-01T12:58:47.999Z,2.67
2018-05-01T13:04:43.102Z,2.53
2018-05-01T13:10:37.982Z,2.71
2018-05-01T13:16:32.986Z,3.64
2018-05-01T13:22:28.017Z,3.26
2018-05-01T13:28:22.995Z,3.16
2018-05-01T13:34:17.992Z,4.14
2018-05-01T13:40:13.034Z,3.51
2018-05-01T13:46:08.005Z,3.76
2018-05-01T13:52:03.054Z,3.75
2018-05-01T13:57:57.991Z,3.33
2018-05-01T14:03:53.050Z,3.17
2018-05-01T14:09:48.040Z,3.7
2018-05-01T14:15:43.031Z,3.56
2018-05-01T14:21:38.034Z,4.53
2018-05-01T14:27:33.021Z,3.1
2018-05-01T14:33:28.012Z,2.85
2018-05-01T14:39:23.018Z,3.35
2018-05-01T14:45:18.085Z,3.55
2018-05-01T14:51:13.026Z,4
2018-05-01T14:57:08.046Z,5.2
2018-05-01T15:03:03.062Z,4.31
2018-05-01T15:08:58.059Z,4.35
2018-05-01T15:14:53.046Z,3.93
2018-05-01T15:20:48.049Z,4.02
2018-05-01T15:26:43.105Z,4.09
2018-05-01T15:32:38.091Z,6.84
2018-05-01T15:38:33.094Z,4.5
2018-05-01T15:44:28.086Z,5.42
2018-05-01T15:50:23.103Z,4.99
2018-05-01T15:56:18.105Z,4.85
2018-05-01T16:02:13.115Z,5.4
2018-05-01T16:08:08.127Z,5.34
2018-05-01T16:14:03.137Z,5.94
2018-05-01T16:19:58.120Z,5.35
2018-05-01T16:25:53.112Z,5.22
2018-05-01T16:31:48.124Z,5.07
2018-05-01T16:37:43.134Z,6.55
2018-05-01T16:43:38.136Z,6.37
2018-05-01T16:49:33.126Z,7.44
2018-05-01T16:55:28.115Z,8.08
2018-05-01T17:01:23.160Z,9.66
2018-05-01T17:07:18.128Z,6.99
2018-05-01T17:13:13.213Z,6.11
2018-05-01T17:19:08.160Z,7
2018-05-01T17:25:03.167Z,6.78
2018-05-01T17:30:58.138Z,8.23
2018-05-01T17:36:53.204Z,7.63
2018-05-01T17:42:48.158Z,7.11
2018-05-01T17:48:43.216Z,30.83
2018-05-01T17:54:38.150Z,28.28
2018-05-01T18:00:33.144Z,15.67
2018-05-01T18:06:28.265Z,18.99
2018-05-01T18:12:23.206Z,20.27
2018-05-01T18:18:18.247Z,17.03
2018-05-01T18:24:13.177Z,16.96
2018-05-01T18:30:08.188Z,15.75
2018-05-01T18:36:03.177Z,15.6
2018-05-01T18:41:58.243Z,14.16
2018-05-01T18:47:53.222Z,16.69
2018-05-01T18:53:48.211Z,11.78
2018-05-01T18:59:43.210Z,11.22
2018-05-01T19:05:38.285Z,11.84
2018-05-01T19:11:33.271Z,12.52
2018-05-01T19:17:28.251Z,17.7
2018-05-01T19:23:23.204Z,11.13
2018-05-01T19:29:18.205Z,12.37
2018-05-01T19:35:13.258Z,9.35
2018-05-01T19:41:08.277Z,9.17
2018-05-01T19:47:03.221Z,10.36
2018-05-01T19:52:58.245Z,11.05
2018-05-01T19:58:53.228Z,11.44
2018-05-01T20:04:48.286Z,10.93
2018-05-01T20:10:43.251Z,15.13
2018-05-01T20:16:38.233Z,10.95
2018-05-01T20:22:33.252Z,11.62
2018-05-01T20:28:28.236Z,10.19
2018-05-01T20:34:23.316Z,10.25
2018-05-01T20:40:18.291Z,10.27
2018-05-01T20:46:13.315Z,10.96
2018-05-01T20:52:08.280Z,10.9
2018-05-01T20:58:03.284Z,11.88
2018-05-01T21:03:58.291Z,13.21
2018-05-01T21:09:53.283Z,14.46
2018-05-01T21:15:48.315Z,15.29
2018-05-01T21:21:43.334Z,16.66
2018-05-01T21:27:38.330Z,14.04
2018-05-01T21:33:33.362Z,14.69
2018-05-01T21:39:28.310Z,15.21
2018-05-01T21:45:23.288Z,16.22
2018-05-01T21:51:18.379Z,14
2018-05-01T21:57:13.299Z,13.15
2018-05-01T22:03:08.308Z,12.51
2018-05-01T22:09:03.316Z,12.97
2018-05-01T22:14:58.379Z,10.03
2018-05-01T22:20:53.326Z,9.63
2018-05-01T22:26:48.390Z,9.4
2018-05-01T22:32:43.364Z,9.77
2018-05-01T22:38:38.378Z,9.26
2018-05-01T22:44:33.360Z,9.3
2018-05-01T22:50:28.356Z,10.86
2018-05-01T22:56:23.393Z,11.94
2018-05-01T23:02:18.363Z,12.81
2018-05-01T23:08:13.347Z,14.22
2018-05-01T23:14:08.345Z,13.54
2018-05-01T23:20:03.372Z,13.13
2018-05-01T23:25:58.390Z,13.31
2018-05-01T23:31:53.405Z,13.27
2018-05-01T23:37:48.381Z,13.01
2018-05-01T23:43:43.353Z,12.92
2018-05-01T23:49:38.402Z,13.4
2018-05-01T23:55:33.420Z,11.85
